ENCN Airport Information

Runway Information
Runway 04 Length 6660 ft width 148 ft
Elevation 41 ft Threshold 394 ft Heading 35
Runway 22 Length 6660 ft Width 148 ft
Elevation 52 ft Threshold 623 ft Heading 215
Airport Frequencies
Type ATIS Name INFO Frequency 124.475 MHZ
Type TWR Name TWR Frequency 118.1 MHZ
Airport Navaids
Type NDB Name Odderoy Frequency 372 KHZ
Type VOR-DME Name Svensheia Frequency 112100 KHZ
Airport Weather Information & NOTAM
ADDS - METARS form results

(1805 UTC 11 July 2020)
Data provider http://aviationweather.gov/metar/data/
 
METAR text: ENCN 111750Z AUTO 28012KT 250V320 9999 NCD 16/05 Q1017
Conditions at: ENCN (KRISTIANSAND/KJE, NO) observed 1750 UTC 11 July 2020
Temperature: 16.0°C (61°F)
Dewpoint: 5.0°C (41°F) [RH = 48%]
Pressure (altimeter): 30.03 inches Hg (1017.0 mb)
Winds: from the W (280 degrees) at 14 MPH (12 knots; 6.2 m/s)
Visibility: 6 or more miles (10+ km)
Ceiling: at least 12,000 feet AGL
Clouds: sky clear below 12,000 feet AGL
Weather: no significant weather observed at this time

METAR text: ENCN 111720Z AUTO 29013KT 250V320 9999 NCD 17/05 Q1017
Conditions at: ENCN (KRISTIANSAND/KJE, NO) observed 1720 UTC 11 July 2020
Temperature: 17.0°C (63°F)
Dewpoint: 5.0°C (41°F) [RH = 45%]
Pressure (altimeter): 30.03 inches Hg (1017.0 mb)
Winds: from the WNW (290 degrees) at 15 MPH (13 knots; 6.7 m/s)
Visibility: 6 or more miles (10+ km)
Ceiling: at least 12,000 feet AGL
Clouds: sky clear below 12,000 feet AGL
Weather: no significant weather observed at this time

Forecast for: ENCN (KRISTIANSAND/KJE, NO)
Text: TAF ENCN 111100Z 1112/1117 29010KT 9999 FEW045
Forecast period: 1200 to 1700 UTC 11 July 2020
Forecast type: FROM: standard forecast or significant change
Winds: from the WNW (290 degrees) at 12 MPH (10 knots; 5.1 m/s)
Visibility: 6 or more miles 10+ km)
Ceiling: at least 12,000 feet AGL
Clouds: few clouds at 4500 feet AGL
Weather: no significant weather forecast for this period
Text: TEMPO 1113/1117 28015G25KT
Forecast period: 1300 to 1700 UTC 11 July 2020
Forecast type: TEMPORARY: The following changes expected for less than half the time period
Winds: from the W (280 degrees) at 17 MPH (15 knots; 7.7 m/s)
gusting to 29 MPH (25 knots; 12.9 m/s)
Visibility: missing
Ceiling: unknown
Clouds: missing
Weather: no significant weather forecast for this period